Time;durP1;ratioP1;P1;durP2;ratioP2;P2;SDS_P1;SDS_P2;PMS_P1;PMS_P2;Temp;Humidity;BMP_temperature;BMP_pressure;BME280_temperature;BME280_humidity;BME280_pressure;Samples;Min_cycle;Max_cycle;Signal;HPM_P1;HPM_P2
2024/03/25 00:02:00;;;;;;;32.17;6.53;;;5.60;99.90;;;;;;5076098;28;20033;-69
2024/03/25 00:04:26;;;;;;;31.42;6.03;;;5.50;99.90;;;;;;5075903;28;20023;-68
2024/03/25 00:06:52;;;;;;;37.13;6.72;;;5.50;99.90;;;;;;5075912;28;20024;-68
2024/03/25 00:09:18;;;;;;;28.67;6.28;;;5.50;99.90;;;;;;5075664;28;20372;-68
2024/03/25 00:11:44;;;;;;;24.80;6.53;;;5.50;99.90;;;;;;5075318;28;20039;-68
2024/03/25 00:14:09;;;;;;;23.05;5.90;;;5.50;99.90;;;;;;5075770;28;20120;-69
2024/03/25 00:16:35;;;;;;;25.98;6.80;;;5.50;99.90;;;;;;5075789;28;20029;-68
2024/03/25 00:19:01;;;;;;;33.72;7.72;;;5.50;99.90;;;;;;5057669;28;20119;-68
2024/03/25 00:21:27;;;;;;;24.98;6.30;;;5.40;99.90;;;;;;5075830;28;20490;-68
2024/03/25 00:23:53;;;;;;;26.67;7.18;;;5.40;99.90;;;;;;5075391;28;20112;-69
2024/03/25 00:26:18;;;;;;;31.98;7.90;;;5.30;99.90;;;;;;5075395;28;20115;-68
2024/03/25 00:28:44;;;;;;;28.33;6.18;;;5.40;99.90;;;;;;5075336;28;20103;-68
2024/03/25 00:31:09;;;;;;;32.88;7.47;;;5.40;99.90;;;;;;5075040;28;20075;-68
2024/03/25 00:33:35;;;;;;;24.20;7.00;;;5.40;99.90;;;;;;5075496;28;20032;-69
2024/03/25 00:36:00;;;;;;;42.38;7.65;;;5.40;99.90;;;;;;5075301;28;20025;-69
2024/03/25 00:38:26;;;;;;;33.03;7.97;;;5.50;99.90;;;;;;5075244;28;20081;-68
2024/03/25 00:40:52;;;;;;;26.25;7.20;;;5.50;99.90;;;;;;5075044;28;20028;-68
2024/03/25 00:43:18;;;;;;;37.10;7.20;;;5.50;99.90;;;;;;5075048;28;20478;-68
2024/03/25 00:45:43;;;;;;;39.22;7.95;;;5.50;99.90;;;;;;5075179;28;20497;-69
2024/03/25 00:48:09;;;;;;;35.03;8.20;;;5.50;99.90;;;;;;5075178;28;20016;-68
2024/03/25 00:50:35;;;;;;;31.00;6.90;;;5.50;99.90;;;;;;5075180;28;20059;-68
2024/03/25 00:53:00;;;;;;;41.35;8.68;;;5.50;99.90;;;;;;5074978;28;20042;-68
2024/03/25 00:55:26;;;;;;;36.25;7.38;;;5.60;99.90;;;;;;5074978;28;20505;-68
2024/03/25 00:57:51;;;;;;;35.58;8.32;;;5.50;99.90;;;;;;5074737;28;20028;-68
2024/03/25 01:00:17;;;;;;;34.13;9.13;;;5.50;99.90;;;;;;5074661;28;20025;-68
2024/03/25 01:02:43;;;;;;;29.63;7.65;;;5.50;99.90;;;;;;5074950;28;20032;-68
2024/03/25 01:05:09;;;;;;;32.58;8.30;;;5.60;99.90;;;;;;5056796;28;20025;-68
2024/03/25 01:07:35;;;;;;;34.83;7.70;;;5.60;99.90;;;;;;5074589;28;20029;-69
2024/03/25 01:10:01;;;;;;;36.35;7.72;;;5.60;99.90;;;;;;5074502;28;20020;-69
2024/03/25 01:12:26;;;;;;;31.08;7.60;;;5.60;99.90;;;;;;5074418;28;20029;-68
2024/03/25 01:14:52;;;;;;;25.92;7.10;;;5.50;99.90;;;;;;5074509;28;20524;-68
2024/03/25 01:17:18;;;;;;;30.98;6.78;;;5.60;99.90;;;;;;5074529;28;20112;-69
2024/03/25 01:19:44;;;;;;;37.22;7.25;;;5.60;99.90;;;;;;5074369;28;20032;-69
2024/03/25 01:22:10;;;;;;;32.55;7.00;;;5.50;99.90;;;;;;5074444;28;20052;-69
2024/03/25 01:24:35;;;;;;;25.45;6.90;;;5.50;99.90;;;;;;5073531;28;20032;-69
2024/03/25 01:27:01;;;;;;;34.60;7.28;;;5.50;99.90;;;;;;5074415;28;20028;-69
2024/03/25 01:29:27;;;;;;;25.70;6.45;;;5.50;99.90;;;;;;5056196;28;20024;-69
2024/03/25 01:31:52;;;;;;;36.17;7.55;;;5.50;99.90;;;;;;5073837;28;20040;-69
2024/03/25 01:34:18;;;;;;;30.27;6.90;;;5.50;99.90;;;;;;5056269;28;20032;-69
2024/03/25 01:36:43;;;;;;;24.50;7.85;;;5.50;99.90;;;;;;5074006;28;20039;-69
2024/03/25 01:39:09;;;;;;;29.48;8.05;;;5.50;99.90;;;;;;5073695;28;20521;-69
2024/03/25 01:41:35;;;;;;;39.03;9.38;;;5.40;99.90;;;;;;5074002;28;20031;-69
2024/03/25 01:44:01;;;;;;;34.28;7.57;;;5.40;99.90;;;;;;5073926;28;20496;-69
2024/03/25 01:46:27;;;;;;;40.67;8.10;;;5.30;99.90;;;;;;5073996;28;20428;-69
2024/03/25 01:48:54;;;;;;;31.55;8.43;;;5.20;99.90;;;;;;5073775;28;20039;-69
2024/03/25 01:51:22;;;;;;;34.92;8.32;;;5.20;99.90;;;;;;5073750;28;20024;-69
2024/03/25 01:53:49;;;;;;;24.83;7.18;;;5.10;99.90;;;;;;5073717;28;20050;-69
2024/03/25 01:56:16;;;;;;;33.25;7.65;;;5.00;99.90;;;;;;5073757;28;20501;-69
2024/03/25 01:58:42;;;;;;;28.83;7.72;;;5.00;99.90;;;;;;5073614;28;20025;-69
2024/03/25 02:01:13;;;;;;;34.10;8.55;;;5.00;99.90;;;;;;5073890;28;20029;-69
2024/03/25 02:03:39;;;;;;;28.63;6.88;;;5.00;99.90;;;;;;5073610;28;20021;-69
2024/03/25 02:06:09;;;;;;;32.08;7.32;;;5.10;99.90;;;;;;5073386;28;20025;-69
2024/03/25 02:08:35;;;;;;;30.40;7.35;;;5.10;99.90;;;;;;5073606;28;20059;-69
2024/03/25 02:11:01;;;;;;;26.75;7.35;;;5.00;99.90;;;;;;5073517;28;20065;-69
2024/03/25 02:13:27;;;;;;;38.28;8.25;;;5.00;99.90;;;;;;5073613;28;20025;-69
2024/03/25 02:15:54;;;;;;;30.77;7.78;;;5.00;99.90;;;;;;5073387;28;20387;-69
2024/03/25 02:18:20;;;;;;;31.17;7.55;;;5.00;99.90;;;;;;5073642;28;20024;-69
2024/03/25 02:20:46;;;;;;;35.05;7.50;;;4.90;99.90;;;;;;5073262;28;20052;-69
2024/03/25 02:23:12;;;;;;;37.67;8.07;;;4.90;99.90;;;;;;5073424;28;20094;-69
2024/03/25 02:25:39;;;;;;;26.70;8.52;;;4.80;99.90;;;;;;5073373;28;20474;-69
2024/03/25 02:28:04;;;;;;;30.05;8.68;;;4.80;99.90;;;;;;5073491;28;20355;-69
2024/03/25 02:30:30;;;;;;;31.73;8.95;;;4.70;99.90;;;;;;5073496;28;20039;-69
2024/03/25 02:32:55;;;;;;;33.00;8.93;;;4.60;99.90;;;;;;5073363;28;20089;-69
2024/03/25 02:35:23;;;;;;;36.78;8.68;;;4.60;99.90;;;;;;5073182;28;20033;-69
2024/03/25 02:37:51;;;;;;;27.15;7.07;;;4.70;99.90;;;;;;5073183;28;20123;-69
2024/03/25 02:40:17;;;;;;;36.45;7.70;;;4.60;99.90;;;;;;5072896;28;20045;-69
2024/03/25 02:42:42;;;;;;;26.70;7.93;;;4.60;99.90;;;;;;5073268;28;20505;-69
2024/03/25 02:45:08;;;;;;;31.95;8.13;;;4.60;99.90;;;;;;5073180;28;20047;-68
2024/03/25 02:47:34;;;;;;;32.08;7.78;;;4.60;99.90;;;;;;5073094;28;20016;-69
2024/03/25 02:50:00;;;;;;;34.95;8.48;;;4.60;99.90;;;;;;5073151;28;20483;-69
2024/03/25 02:52:25;;;;;;;33.88;8.18;;;4.60;99.90;;;;;;5072992;28;20100;-69
2024/03/25 02:54:51;;;;;;;29.85;7.68;;;4.60;99.90;;;;;;5073149;28;20475;-69
2024/03/25 02:57:17;;;;;;;31.42;7.15;;;4.70;99.90;;;;;;5072942;28;20029;-69
2024/03/25 02:59:42;;;;;;;32.13;7.03;;;4.70;99.90;;;;;;5072839;28;20033;-69
2024/03/25 03:02:08;;;;;;;41.80;7.63;;;4.80;99.90;;;;;;5072974;28;20119;-69
2024/03/25 03:04:33;;;;;;;32.67;6.97;;;4.80;99.90;;;;;;5072923;28;20021;-69
2024/03/25 03:06:59;;;;;;;27.73;6.40;;;4.80;99.90;;;;;;5072929;28;20067;-69
2024/03/25 03:09:24;;;;;;;25.83;6.53;;;4.80;99.90;;;;;;5073043;28;20052;-68
2024/03/25 03:11:50;;;;;;;29.13;6.40;;;4.80;99.90;;;;;;5072833;28;20546;-68
2024/03/25 03:14:15;;;;;;;30.13;6.55;;;4.80;99.90;;;;;;5072847;28;20111;-68
2024/03/25 03:16:41;;;;;;;35.15;7.15;;;4.80;99.90;;;;;;5073061;28;20037;-69
2024/03/25 03:19:07;;;;;;;33.65;6.65;;;4.80;99.90;;;;;;5072696;28;20086;-68
2024/03/25 03:21:32;;;;;;;24.60;7.57;;;4.90;99.90;;;;;;5073118;28;20032;-68
2024/03/25 03:23:58;;;;;;;33.15;7.00;;;4.80;99.90;;;;;;5072507;28;20021;-68
2024/03/25 03:26:27;;;;;;;25.85;5.68;;;4.80;99.90;;;;;;5072745;28;20043;-68
2024/03/25 03:28:54;;;;;;;23.15;5.82;;;4.80;99.90;;;;;;5072696;28;20115;-68
2024/03/25 03:31:21;;;;;;;25.33;6.15;;;4.80;99.90;;;;;;5072663;28;20531;-68
2024/03/25 03:33:47;;;;;;;34.67;6.97;;;4.80;99.90;;;;;;5072652;28;20111;-69
2024/03/25 03:36:15;;;;;;;22.00;6.07;;;4.80;99.90;;;;;;5072648;28;20032;-68
2024/03/25 03:38:40;;;;;;;33.65;6.20;;;4.80;99.90;;;;;;5072360;28;20479;-69
2024/03/25 03:41:06;;;;;;;24.83;6.03;;;4.80;99.90;;;;;;5072821;28;20039;-69
2024/03/25 03:43:32;;;;;;;25.95;6.22;;;4.80;99.90;;;;;;5072465;28;20029;-69
2024/03/25 03:45:57;;;;;;;19.50;5.25;;;4.80;99.90;;;;;;5072471;28;20025;-69
2024/03/25 03:48:23;;;;;;;21.52;5.95;;;4.80;99.90;;;;;;5076238;28;20037;-68
2024/03/25 03:50:48;;;;;;;23.77;5.25;;;4.80;99.90;;;;;;5076032;28;20390;-68
2024/03/25 03:53:14;;;;;;;23.98;6.38;;;4.80;99.90;;;;;;5076180;28;20032;-69
2024/03/25 03:55:39;;;;;;;16.83;5.50;;;4.80;99.90;;;;;;5076278;28;20036;-69
2024/03/25 03:58:05;;;;;;;21.95;6.90;;;4.80;99.90;;;;;;5076094;28;20035;-69
2024/03/25 04:00:34;;;;;;;31.27;9.00;;;4.80;99.90;;;;;;5075866;28;20043;-69
2024/03/25 04:03:00;;;;;;;30.20;10.73;;;4.80;99.90;;;;;;5075988;28;20021;-69
2024/03/25 04:05:30;;;;;;;35.33;11.15;;;4.80;99.90;;;;;;5075745;28;20081;-68
2024/03/25 04:07:55;;;;;;;42.88;12.15;;;4.80;99.90;;;;;;5058011;28;20474;-68
2024/03/25 04:10:21;;;;;;;39.47;13.48;;;4.80;99.90;;;;;;5075659;28;20036;-68
2024/03/25 04:12:47;;;;;;;47.33;14.23;;;4.70;99.90;;;;;;5075412;28;20025;-68
2024/03/25 04:15:17;;;;;;;54.63;15.30;;;4.70;99.90;;;;;;5075672;28;20115;-68
2024/03/25 04:17:44;;;;;;;42.58;15.68;;;4.80;99.90;;;;;;5075415;28;20033;-68
2024/03/25 04:20:11;;;;;;;49.08;16.98;;;4.80;99.90;;;;;;5075359;28;20453;-68
2024/03/25 04:22:40;;;;;;;57.03;15.23;;;4.80;99.90;;;;;;5075300;28;20020;-68
2024/03/25 04:25:06;;;;;;;49.25;15.68;;;4.80;99.90;;;;;;5075495;28;20028;-68
2024/03/25 04:27:31;;;;;;;58.78;15.55;;;4.80;99.90;;;;;;5075561;28;20032;-68
2024/03/25 04:29:57;;;;;;;55.72;15.68;;;4.80;99.90;;;;;;5075526;28;20033;-69
2024/03/25 04:32:22;;;;;;;49.33;17.58;;;4.80;99.90;;;;;;5075526;28;20032;-68
2024/03/25 04:34:48;;;;;;;54.03;18.17;;;4.80;99.90;;;;;;5075422;28;20036;-68
2024/03/25 04:37:14;;;;;;;57.63;19.02;;;4.80;99.90;;;;;;5075245;28;20020;-68
2024/03/25 04:39:40;;;;;;;67.90;21.02;;;4.80;99.90;;;;;;5074961;28;20044;-69
2024/03/25 04:42:06;;;;;;;83.78;23.42;;;4.80;99.90;;;;;;5075266;28;20028;-68
2024/03/25 04:44:31;;;;;;;74.22;22.95;;;4.90;99.90;;;;;;5075172;28;20028;-68
2024/03/25 04:46:57;;;;;;;74.40;23.40;;;4.80;99.90;;;;;;5075011;28;20489;-69
2024/03/25 04:49:22;;;;;;;69.82;23.40;;;4.90;99.90;;;;;;5075193;28;20028;-68
2024/03/25 04:51:51;;;;;;;63.45;22.35;;;4.90;99.90;;;;;;5074993;28;20512;-68
2024/03/25 04:54:17;;;;;;;65.10;21.83;;;4.90;99.90;;;;;;5074943;28;20059;-68
2024/03/25 04:56:44;;;;;;;63.08;21.92;;;4.80;99.90;;;;;;5075067;28;20479;-68
2024/03/25 04:59:09;;;;;;;63.20;21.98;;;4.90;99.90;;;;;;5074636;28;20475;-68
2024/03/25 05:01:36;;;;;;;75.03;20.83;;;4.90;99.90;;;;;;5074832;28;20025;-68
2024/03/25 05:04:02;;;;;;;74.05;21.48;;;4.90;99.90;;;;;;5074950;28;20498;-68
2024/03/25 05:06:27;;;;;;;72.07;21.33;;;4.90;99.90;;;;;;5074605;28;20020;-68
2024/03/25 05:08:53;;;;;;;69.32;21.15;;;4.90;99.90;;;;;;5074566;28;20033;-68
2024/03/25 05:11:18;;;;;;;71.00;20.13;;;4.80;99.90;;;;;;5074601;28;20033;-68
2024/03/25 05:13:44;;;;;;;72.45;20.80;;;4.80;99.90;;;;;;5074753;28;20491;-68
2024/03/25 05:16:09;;;;;;;71.03;22.67;;;4.80;99.90;;;;;;5074480;28;20028;-68
2024/03/25 05:18:35;;;;;;;73.35;21.00;;;4.80;99.90;;;;;;5074478;28;20484;-68
2024/03/25 05:21:00;;;;;;;65.78;22.23;;;4.80;99.90;;;;;;5074227;28;20033;-68
2024/03/25 05:23:26;;;;;;;57.25;18.42;;;4.70;99.90;;;;;;5073958;28;20394;-69
2024/03/25 05:25:51;;;;;;;58.47;18.05;;;4.80;99.90;;;;;;5074267;28;20068;-68
2024/03/25 05:28:17;;;;;;;66.82;18.23;;;4.70;99.90;;;;;;5074241;28;20052;-69
2024/03/25 05:30:42;;;;;;;57.22;17.92;;;4.70;99.90;;;;;;5074163;28;20032;-68
2024/03/25 05:33:08;;;;;;;65.57;18.08;;;4.70;99.90;;;;;;5074180;28;20482;-68
2024/03/25 05:35:36;;;;;;;61.75;18.35;;;4.70;99.90;;;;;;5074352;28;20043;-69
2024/03/25 05:38:03;;;;;;;49.13;16.25;;;4.70;99.90;;;;;;5074084;28;20090;-69
2024/03/25 05:40:29;;;;;;;61.33;18.75;;;4.70;99.90;;;;;;5073870;28;20041;-68
2024/03/25 05:42:54;;;;;;;72.57;17.33;;;4.70;99.90;;;;;;5073903;28;20048;-69
2024/03/25 05:45:20;;;;;;;61.65;18.58;;;4.70;99.90;;;;;;5073733;28;20123;-69
2024/03/25 05:47:45;;;;;;;63.78;21.23;;;4.80;99.90;;;;;;5073846;28;20025;-69
2024/03/25 05:50:11;;;;;;;71.55;27.20;;;4.70;99.90;;;;;;5073819;28;20074;-69
2024/03/25 05:52:36;;;;;;;64.93;22.08;;;4.80;99.90;;;;;;5073841;28;20047;-68
2024/03/25 05:55:02;;;;;;;74.70;27.83;;;4.80;99.90;;;;;;5073520;28;20395;-68
2024/03/25 05:57:28;;;;;;;79.13;28.92;;;4.80;99.90;;;;;;5073633;28;20074;-69
2024/03/25 05:59:53;;;;;;;86.22;30.98;;;4.80;99.90;;;;;;5073604;28;20078;-68
2024/03/25 06:02:19;;;;;;;82.97;29.25;;;4.80;99.90;;;;;;5073769;28;20051;-69
2024/03/25 06:04:44;;;;;;;80.40;30.65;;;4.80;99.90;;;;;;5073539;28;20029;-68
2024/03/25 06:07:10;;;;;;;100.43;41.35;;;4.90;99.90;;;;;;5073690;28;20398;-69
2024/03/25 06:09:35;;;;;;;100.10;42.25;;;4.90;99.90;;;;;;5073272;28;20031;-68
2024/03/25 06:12:01;;;;;;;98.25;36.35;;;4.90;99.90;;;;;;5073414;28;20074;-68
2024/03/25 06:14:27;;;;;;;92.45;34.60;;;4.90;99.90;;;;;;5073531;28;20098;-68
2024/03/25 06:16:52;;;;;;;97.03;39.67;;;4.90;99.90;;;;;;5073385;28;20383;-69
2024/03/25 06:19:18;;;;;;;123.15;47.15;;;4.90;99.90;;;;;;5073280;28;20028;-69
2024/03/25 06:21:45;;;;;;;88.18;33.40;;;5.00;99.90;;;;;;5073370;28;20035;-69
2024/03/25 06:24:10;;;;;;;136.98;51.10;;;5.00;99.90;;;;;;5073191;28;20035;-69
2024/03/25 06:26:36;;;;;;;131.85;56.92;;;5.10;99.90;;;;;;5073441;28;20029;-69
2024/03/25 06:29:02;;;;;;;99.97;37.95;;;5.10;99.90;;;;;;5073196;28;20036;-69
2024/03/25 06:34:17;;;;;;;56.55;20.80;;;5.10;99.90;;;;;;5072975;28;20031;-69
2024/03/25 06:36:43;;;;;;;76.82;34.33;;;5.10;99.90;;;;;;5073281;28;20029;-70
2024/03/25 06:39:09;;;;;;;88.40;33.05;;;5.20;99.90;;;;;;5072863;28;20049;-69
2024/03/25 06:41:35;;;;;;;70.53;23.10;;;5.20;99.90;;;;;;5073343;28;20166;-69
2024/03/25 06:44:00;;;;;;;66.97;22.48;;;5.30;99.90;;;;;;5055273;28;20017;-69
2024/03/25 06:46:26;;;;;;;56.75;20.75;;;5.40;99.90;;;;;;5073051;28;20471;-70
2024/03/25 06:48:52;;;;;;;61.55;19.05;;;5.40;99.90;;;;;;5073010;28;20475;-69
2024/03/25 06:51:18;;;;;;;57.00;18.95;;;5.40;99.90;;;;;;5072943;28;20056;-69
2024/03/25 06:53:44;;;;;;;67.80;18.75;;;5.60;99.90;;;;;;5072470;28;20490;-69
2024/03/25 06:56:09;;;;;;;54.65;17.08;;;5.60;99.90;;;;;;5071753;28;20539;-70
2024/03/25 06:58:35;;;;;;;50.78;16.85;;;5.80;99.90;;;;;;5071762;28;20024;-69
2024/03/25 07:01:06;;;;;;;50.55;15.98;;;6.00;99.90;;;;;;5069963;28;20489;-70
2024/03/25 07:03:32;;;;;;;41.08;13.55;;;6.10;99.90;;;;;;5070583;28;20040;-69
2024/03/25 07:06:00;;;;;;;41.90;15.57;;;6.20;99.90;;;;;;5070946;28;20399;-69
2024/03/25 07:08:25;;;;;;;39.53;13.00;;;6.40;99.90;;;;;;5071591;28;20024;-69
2024/03/25 07:10:52;;;;;;;31.50;11.15;;;6.70;99.90;;;;;;5071358;28;20433;-69
2024/03/25 07:13:18;;;;;;;38.22;12.10;;;6.90;99.90;;;;;;5071881;28;20035;-70
2024/03/25 07:15:43;;;;;;;34.15;13.05;;;7.10;99.90;;;;;;5076412;28;20493;-70
2024/03/25 07:18:10;;;;;;;35.50;13.05;;;7.60;99.90;;;;;;5078000;28;20117;-69
2024/03/25 07:20:36;;;;;;;41.00;14.15;;;7.40;99.90;;;;;;5077446;28;20032;-71
2024/03/25 07:23:03;;;;;;;36.28;12.82;;;7.50;99.90;;;;;;5083949;28;20033;-71
2024/03/25 07:25:29;;;;;;;36.00;13.70;;;8.60;90.10;;;;;;5080383;28;20495;-70
2024/03/25 07:27:55;;;;;;;42.95;14.63;;;8.50;41.50;;;;;;5083671;28;20470;-70
2024/03/25 07:30:24;;;;;;;39.97;15.00;;;8.20;54.10;;;;;;5084481;28;20047;-71
2024/03/25 07:32:50;;;;;;;39.50;15.20;;;8.00;72.60;;;;;;5080458;28;20020;-70
2024/03/25 07:35:16;;;;;;;48.05;16.90;;;7.70;82.70;;;;;;5084063;28;20040;-70
2024/03/25 07:37:43;;;;;;;50.60;15.60;;;7.60;97.30;;;;;;5075286;28;20090;-69
2024/03/25 07:40:10;;;;;;;51.63;15.60;;;7.50;96.50;;;;;;5074682;28;20045;-70
2024/03/25 07:42:35;;;;;;;41.50;16.05;;;7.30;94.00;;;;;;5076135;28;20021;-70
2024/03/25 07:45:02;;;;;;;64.90;27.17;;;7.10;97.70;;;;;;5075222;28;20023;-70
2024/03/25 07:47:27;;;;;;;50.90;19.15;;;7.10;94.80;;;;;;5075453;28;20048;-69
2024/03/25 07:49:53;;;;;;;49.95;21.33;;;7.10;98.90;;;;;;5075439;28;20028;-69
2024/03/25 07:52:18;;;;;;;59.22;22.70;;;7.10;99.90;;;;;;5067355;28;20542;-69
2024/03/25 07:54:44;;;;;;;55.15;21.13;;;7.10;93.60;;;;;;5073829;28;20081;-69
2024/03/25 07:57:09;;;;;;;62.88;27.15;;;7.20;90.10;;;;;;5080521;28;20383;-70
2024/03/25 07:59:35;;;;;;;67.45;31.13;;;7.30;90.90;;;;;;5076085;28;20036;-70
2024/03/25 08:02:01;;;;;;;39.45;15.85;;;7.40;92.70;;;;;;5078462;28;20161;-70
2024/03/25 08:04:26;;;;;;;45.75;19.63;;;7.50;76.10;;;;;;5066699;28;20031;-70
2024/03/25 08:06:52;;;;;;;38.45;12.88;;;7.40;68.30;;;;;;5063850;28;20032;-69
2024/03/25 08:09:17;;;;;;;55.15;17.45;;;7.50;58.40;;;;;;5076931;28;20052;-70
2024/03/25 08:11:43;;;;;;;45.47;16.58;;;7.70;70.50;;;;;;5073925;28;20037;-68
2024/03/25 08:14:09;;;;;;;39.95;13.30;;;7.70;66.60;;;;;;5072519;28;20119;-68
2024/03/25 08:16:35;;;;;;;48.65;14.30;;;7.90;67.90;;;;;;5073196;28;20435;-68
2024/03/25 08:19:01;;;;;;;43.25;13.57;;;8.20;42.60;;;;;;5074003;28;20102;-69
2024/03/25 08:21:26;;;;;;;32.72;10.90;;;8.20;46.20;;;;;;5072603;28;20115;-69
2024/03/25 08:23:52;;;;;;;29.85;10.32;;;8.60;21.00;;;;;;5074038;28;20032;-69
2024/03/25 08:26:18;;;;;;;30.88;10.30;;;8.70;1.00;;;;;;5073750;28;20127;-70
2024/03/25 08:28:43;;;;;;;30.38;9.43;;;8.70;4.90;;;;;;5074915;28;20028;-70
2024/03/25 08:31:09;;;;;;;31.33;9.55;;;8.80;1.00;;;;;;5073276;28;20037;-70
2024/03/25 08:33:34;;;;;;;33.85;9.68;;;9.00;1.00;;;;;;5073618;28;20063;-70
2024/03/25 08:36:00;;;;;;;33.30;8.55;;;9.30;1.00;;;;;;5073002;28;20028;-70
2024/03/25 08:38:25;;;;;;;29.83;8.40;;;9.80;1.00;;;;;;5072039;28;20060;-70
2024/03/25 08:40:51;;;;;;;26.92;7.47;;;9.80;1.00;;;;;;5067667;28;20086;-70
2024/03/25 08:43:17;;;;;;;34.00;8.68;;;10.10;1.00;;;;;;5070327;28;20017;-71
2024/03/25 08:45:44;;;;;;;21.17;6.95;;;10.50;1.00;;;;;;5069869;28;20040;-70
2024/03/25 08:48:10;;;;;;;21.77;6.78;;;11.00;53.90;;;;;;5066155;28;20029;-70
2024/03/25 08:50:35;;;;;;;26.17;9.18;;;10.80;99.90;;;;;;5074464;28;20025;-70
2024/03/25 08:53:01;;;;;;;23.05;9.20;;;10.90;99.90;;;;;;5074623;28;20127;-70
2024/03/25 08:55:27;;;;;;;25.02;8.80;;;11.30;15.90;;;;;;5073550;28;20079;-70
2024/03/25 08:57:53;;;;;;;26.85;8.35;;;11.60;99.90;;;;;;5065583;28;20481;-70
2024/03/25 09:00:18;;;;;;;24.20;7.53;;;11.70;1.00;;;;;;5068626;28;20040;-70
2024/03/25 09:02:44;;;;;;;24.42;6.75;;;11.80;1.00;;;;;;5070791;28;20052;-70
2024/03/25 09:05:10;;;;;;;24.08;8.45;;;11.10;99.90;;;;;;5069146;28;20028;-70
2024/03/25 09:07:36;;;;;;;22.67;7.45;;;11.00;1.00;;;;;;5071025;28;20033;-69
2024/03/25 09:12:47;;;;;;;22.50;6.72;;;10.90;1.00;;;;;;5069749;28;20058;-69
2024/03/25 09:15:14;;;;;;;25.65;7.28;;;10.80;99.90;;;;;;5071114;28;20166;-69
2024/03/25 09:17:40;;;;;;;22.92;8.60;;;10.90;27.90;;;;;;5060130;28;20051;-69
2024/03/25 09:20:16;;;;;;;22.77;9.73;;;10.70;19.90;;;;;;5069637;28;20050;-69
2024/03/25 09:22:42;;;;;;;21.35;6.80;;;11.50;99.90;;;;;;5072193;28;20020;-69
2024/03/25 09:25:08;;;;;;;17.60;5.95;;;12.50;99.90;;;;;;5070066;28;20031;-67
2024/03/25 09:27:34;;;;;;;19.60;8.13;;;;;;;;;;5072330;28;20028;-68
2024/03/25 09:29:59;;;;;;;25.95;7.63;;;12.70;1.00;;;;;;5066384;28;20561;-68
2024/03/25 09:32:26;;;;;;;10.90;3.75;;;12.00;2.70;;;;;;5074328;28;20047;-68
2024/03/25 09:34:52;;;;;;;12.85;3.38;;;12.40;99.90;;;;;;5074508;28;20117;-70
2024/03/25 09:37:17;;;;;;;8.82;1.80;;;12.50;1.00;;;;;;5068416;28;20086;-68
2024/03/25 09:39:43;;;;;;;11.20;2.90;;;12.80;89.50;;;;;;5073404;28;20044;-70
2024/03/25 09:42:14;;;;;;;12.65;4.40;;;12.30;99.90;;;;;;5073868;28;20479;-69
2024/03/25 09:44:39;;;;;;;13.93;3.40;;;11.70;1.00;;;;;;5062658;28;20485;-70
2024/03/25 09:47:07;;;;;;;9.80;3.63;;;10.80;99.90;;;;;;5070234;28;20020;-69
2024/03/25 09:49:33;;;;;;;12.32;4.47;;;11.60;99.90;;;;;;5069977;28;20458;-70
2024/03/25 09:51:59;;;;;;;8.65;2.08;;;12.10;1.00;;;;;;5072869;28;20028;-70
2024/03/25 09:54:25;;;;;;;9.10;1.80;;;11.50;1.00;;;;;;5073179;28;20085;-70
2024/03/25 09:56:51;;;;;;;27.92;12.63;;;11.60;99.90;;;;;;5084186;28;20033;-70
2024/03/25 09:59:17;;;;;;;20.27;7.63;;;12.30;99.90;;;;;;5071083;28;20055;-69
2024/03/25 10:01:42;;;;;;;21.33;10.90;;;12.50;99.90;;;;;;5070313;28;20501;-70
2024/03/25 10:04:09;;;;;;;14.73;4.18;;;12.20;1.00;;;;;;5069656;28;20017;-70
2024/03/25 10:06:35;;;;;;;18.48;4.38;;;12.00;73.50;;;;;;5057444;28;20575;-69
2024/03/25 10:09:05;;;;;;;8.18;2.47;;;11.90;99.90;;;;;;5064442;28;20132;-69
2024/03/25 10:11:34;;;;;;;10.57;3.30;;;11.90;99.90;;;;;;5059631;28;20043;-70
2024/03/25 10:14:01;;;;;;;8.38;2.80;;;11.60;39.00;;;;;;5070236;28;20021;-70
2024/03/25 10:16:27;;;;;;;10.57;2.92;;;12.20;1.00;;;;;;5067727;28;20516;-70
2024/03/25 10:18:53;;;;;;;8.82;2.70;;;13.00;99.90;;;;;;5068412;28;20060;-70
2024/03/25 10:21:20;;;;;;;8.90;2.15;;;14.20;99.90;;;;;;5066226;28;20479;-70
2024/03/25 10:23:48;;;;;;;9.15;3.47;;;14.50;99.90;;;;;;5054788;28;20123;-70
2024/03/25 10:26:31;;;;;;;7.78;2.85;;;13.40;99.90;;;;;;5075662;28;20479;-70
2024/03/25 10:28:59;;;;;;;9.13;2.83;;;14.30;36.20;;;;;;5071460;28;20448;-70
2024/03/25 10:31:25;;;;;;;9.18;2.78;;;13.50;99.90;;;;;;5071563;28;20036;-69
2024/03/25 10:33:51;;;;;;;10.63;3.70;;;12.30;99.90;;;;;;5070990;28;20436;-70
2024/03/25 10:36:17;;;;;;;12.40;3.92;;;12.10;99.90;;;;;;5076888;28;20086;-70
2024/03/25 10:38:45;;;;;;;10.20;2.40;;;12.30;99.90;;;;;;5070726;28;20047;-70
2024/03/25 10:41:16;;;;;;;10.13;2.75;;;12.10;1.00;;;;;;5058992;28;20386;-69
2024/03/25 10:43:45;;;;;;;10.05;2.42;;;12.70;99.90;;;;;;5076402;28;20414;-70
2024/03/25 10:46:11;;;;;;;9.85;3.15;;;13.00;99.90;;;;;;5069166;28;20029;-69
2024/03/25 10:48:40;;;;;;;10.40;3.20;;;13.40;99.90;;;;;;5070210;28;20020;-70
2024/03/25 10:51:08;;;;;;;9.02;2.72;;;13.60;99.90;;;;;;5067790;28;20085;-69
2024/03/25 10:53:36;;;;;;;7.65;2.67;;;13.10;99.90;;;;;;5064731;28;20048;-69
2024/03/25 10:56:04;;;;;;;7.30;2.60;;;13.10;99.90;;;;;;5070911;28;20085;-70
2024/03/25 10:58:31;;;;;;;9.02;2.55;;;13.40;99.90;;;;;;5076876;28;20210;-70
2024/03/25 11:00:58;;;;;;;13.40;2.80;;;13.20;1.00;;;;;;5078739;28;20032;-70
2024/03/25 11:03:24;;;;;;;12.65;3.10;;;13.00;99.90;;;;;;5076704;28;20033;-69
2024/03/25 11:05:49;;;;;;;10.15;3.17;;;13.30;99.90;;;;;;5076987;28;20028;-70
2024/03/25 11:08:16;;;;;;;11.85;3.08;;;13.50;99.90;;;;;;5077625;28;20020;-70
2024/03/25 11:10:45;;;;;;;10.63;3.10;;;13.50;99.90;;;;;;5077658;28;20025;-70
2024/03/25 11:13:11;;;;;;;8.50;3.00;;;13.20;99.90;;;;;;5076639;28;20047;-71
2024/03/25 11:15:43;;;;;;;9.35;3.33;;;13.00;99.90;;;;;;5075211;28;20044;-70
2024/03/25 11:18:15;;;;;;;13.13;5.00;;;13.10;99.90;;;;;;5075256;28;20054;-70
2024/03/25 11:20:41;;;;;;;16.73;7.22;;;12.70;99.90;;;;;;5075273;28;20024;-70
2024/03/25 11:23:10;;;;;;;7.15;2.85;;;13.20;99.90;;;;;;5075276;28;20040;-70
2024/03/25 11:25:36;;;;;;;11.52;3.60;;;13.00;99.90;;;;;;5075736;28;20486;-69
2024/03/25 11:28:02;;;;;;;12.07;3.08;;;13.30;99.90;;;;;;5073900;28;20028;-70
2024/03/25 11:30:29;;;;;;;6.13;2.30;;;13.30;99.90;;;;;;5073181;28;20541;-70
2024/03/25 11:32:55;;;;;;;11.15;2.53;;;12.70;99.90;;;;;;5075478;28;20544;-69
2024/03/25 11:35:21;;;;;;;8.82;2.80;;;13.20;99.90;;;;;;5074468;28;20033;-70
2024/03/25 11:37:47;;;;;;;8.93;3.35;;;13.20;38.80;;;;;;5074258;28;20043;-68
2024/03/25 11:40:14;;;;;;;10.55;2.78;;;13.10;47.90;;;;;;5074929;28;20114;-68
2024/03/25 11:42:41;;;;;;;9.77;2.80;;;13.20;34.00;;;;;;5074913;28;20028;-69
2024/03/25 11:45:14;;;;;;;10.70;3.33;;;12.90;84.40;;;;;;5053549;28;20402;-69
2024/03/25 11:47:40;;;;;;;11.45;3.67;;;13.20;89.60;;;;;;5073771;28;20036;-68
2024/03/25 11:50:11;;;;;;;17.08;3.42;;;13.20;99.90;;;;;;5075293;28;20443;-69
2024/03/25 11:52:36;;;;;;;11.55;3.42;;;13.50;15.40;;;;;;5074778;28;20035;-69
2024/03/25 11:55:02;;;;;;;9.30;3.20;;;13.20;24.30;;;;;;5075560;28;20028;-69
2024/03/25 11:57:28;;;;;;;9.90;3.20;;;13.30;48.00;;;;;;5075344;28;20077;-69
2024/03/25 11:59:54;;;;;;;14.73;3.13;;;13.50;1.00;;;;;;5075025;28;20456;-67
2024/03/25 12:02:20;;;;;;;12.65;3.42;;;12.80;99.90;;;;;;5075046;28;20162;-68
2024/03/25 12:04:47;;;;;;;12.00;3.60;;;13.00;99.90;;;;;;5075227;28;20033;-67
2024/03/25 12:07:13;;;;;;;11.18;3.60;;;12.50;99.90;;;;;;5074626;28;20462;-67
2024/03/25 12:12:26;;;;;;;12.00;3.38;;;13.40;99.90;;;;;;5074287;28;20028;-67
2024/03/25 12:14:52;;;;;;;9.88;3.28;;;13.40;1.00;;;;;;5073961;28;20040;-67
2024/03/25 12:17:19;;;;;;;12.27;3.58;;;13.00;5.00;;;;;;5062356;28;20054;-67
2024/03/25 12:20:05;;;;;;;10.20;3.30;;;12.30;77.40;;;;;;5073180;28;20394;-67
2024/03/25 12:22:32;;;;;;;11.15;5.60;;;12.20;3.40;;;;;;5072301;28;20060;-68
2024/03/25 12:24:59;;;;;;;9.63;3.40;;;12.10;99.90;;;;;;5071583;28;20056;-68
2024/03/25 12:27:25;;;;;;;9.65;3.55;;;11.70;99.90;;;;;;5055592;28;20043;-68
2024/03/25 12:30:03;;;;;;;10.45;3.42;;;11.50;99.90;;;;;;5050140;28;20029;-68
2024/03/25 12:32:41;;;;;;;10.50;3.13;;;11.40;99.90;;;;;;5074169;28;20509;-68
2024/03/25 12:35:09;;;;;;;10.07;3.20;;;11.50;99.90;;;;;;5073991;28;20553;-68
2024/03/25 12:37:37;;;;;;;12.13;3.13;;;11.90;99.90;;;;;;5074688;28;20474;-68
2024/03/25 12:40:05;;;;;;;12.35;3.47;;;12.20;99.90;;;;;;5074283;28;20036;-68
2024/03/25 12:42:31;;;;;;;9.30;3.22;;;12.20;99.90;;;;;;5074293;28;20024;-68
2024/03/25 12:44:56;;;;;;;12.55;3.30;;;11.90;99.90;;;;;;5074061;28;20085;-67
2024/03/25 12:47:22;;;;;;;9.20;3.45;;;12.10;99.90;;;;;;5074314;28;20176;-68